This is the latest recevied weather packets stored in our database for station/object HB9CJD-1. If no packets are shown the sender has not sent any weather packets the latest 10 day(s).
| Time | Temp. | Humidity | Pressure | Rain* | Wind** | Luminosity | Snow |
|---|---|---|---|---|---|---|---|
| 1777659141 | 25.56° C | 26% | 1024.2 hPa | - | - | - | - |
| 1777659140 | 25.56° C | 26% | 1024.2 hPa | - | - | - | - |
| 1777658537 | 26.67° C | 26% | 1024.1 hPa | - | - | - | - |
| 1777658537 | 26.67° C | 26% | 1024.1 hPa | - | - | - | - |
| 1777657934 | 27.22° C | 26% | 1024.1 hPa | - | - | - | - |
| 1777657934 | 27.22° C | 26% | 1024.1 hPa | - | - | - | - |
| 1777657331 | 27.78° C | 26% | 1024 hPa | - | - | - | - |
| 1777657331 | 27.78° C | 26% | 1024 hPa | - | - | - | - |
| 1777656728 | 27.78° C | 26% | 1024 hPa | - | - | - | - |
| 1777656727 | 27.78° C | 26% | 1024 hPa | - | - | - | - |
| 1777656124 | 27.78° C | 23% | 1023.9 hPa | - | - | - | - |
| 1777656124 | 27.78° C | 23% | 1023.9 hPa | - | - | - | - |
| 1777655521 | 28.33° C | 27% | 1024 hPa | - | - | - | - |
| 1777655521 | 28.33° C | 27% | 1024 hPa | - | - | - | - |
| 1777654917 | 27.78° C | 25% | 1024 hPa | - | - | - | - |
| 1777654917 | 27.78° C | 25% | 1024 hPa | - | - | - | - |
| 1777654314 | 27.78° C | 27% | 1024 hPa | - | - | - | - |
| 1777654314 | 27.78° C | 27% | 1024 hPa | - | - | - | - |
| 1777653711 | 27.22° C | 25% | 1024.2 hPa | - | - | - | - |
| 1777653108 | 27.78° C | 27% | 1024.2 hPa | - | - | - | - |
| 1777653108 | 27.78° C | 27% | 1024.2 hPa | - | - | - | - |
| 1777652505 | 27.22° C | 24% | 1024.3 hPa | - | - | - | - |
| 1777652504 | 27.22° C | 24% | 1024.3 hPa | - | - | - | - |
| 1777651901 | 26.67° C | 29% | 1024.3 hPa | - | - | - | - |
| 1777651901 | 26.67° C | 29% | 1024.3 hPa | - | - | - | - |
* Rain since midnight (hover to see other rain measurements)
** Current wind speed in m/s (hover to see current wind gust speed)